createdAt,value
2018-06-17T00:00:50.441Z,16.80
2018-06-17T00:03:17.340Z,16.77
2018-06-17T00:05:44.249Z,16.74
2018-06-17T00:08:11.217Z,16.68
2018-06-17T00:10:38.129Z,16.62
2018-06-17T00:13:05.118Z,16.41
2018-06-17T00:15:32.022Z,16.34
2018-06-17T00:17:58.909Z,16.22
2018-06-17T00:20:25.825Z,16.14
2018-06-17T00:22:52.868Z,16.17
2018-06-17T00:25:19.761Z,16.00
2018-06-17T00:27:46.661Z,15.89
2018-06-17T00:30:13.586Z,15.94
2018-06-17T00:32:40.478Z,15.78
2018-06-17T00:35:07.386Z,15.79
2018-06-17T00:37:34.536Z,15.72
2018-06-17T00:40:01.434Z,15.79
2018-06-17T00:42:28.353Z,15.78
2018-06-17T00:44:55.261Z,15.65
2018-06-17T00:47:22.192Z,15.63
2018-06-17T00:49:49.058Z,15.70
2018-06-17T00:52:15.985Z,15.67
2018-06-17T00:54:42.878Z,15.61
2018-06-17T00:57:21.449Z,15.63
2018-06-17T00:59:48.325Z,15.52
2018-06-17T01:02:15.225Z,15.65
2018-06-17T01:04:42.117Z,15.70
2018-06-17T01:07:09.013Z,15.64
2018-06-17T01:09:35.895Z,15.65
2018-06-17T01:12:02.833Z,15.62
2018-06-17T01:14:29.711Z,15.68
2018-06-17T01:16:56.622Z,15.62
2018-06-17T01:19:23.524Z,15.70
2018-06-17T01:21:50.433Z,15.60
2018-06-17T01:24:17.314Z,15.62
2018-06-17T01:26:44.229Z,15.65
2018-06-17T01:29:11.117Z,15.83
2018-06-17T01:31:38.017Z,15.71
2018-06-17T01:34:05.033Z,15.79
2018-06-17T01:36:31.924Z,15.74
2018-06-17T01:38:58.825Z,15.77
2018-06-17T01:41:25.733Z,15.94
2018-06-17T01:43:52.622Z,16.05
2018-06-17T01:46:19.533Z,15.92
2018-06-17T01:48:46.492Z,15.91
2018-06-17T01:51:13.401Z,16.05
2018-06-17T01:53:40.298Z,15.88
2018-06-17T01:56:07.222Z,15.94
2018-06-17T01:58:34.124Z,15.96
2018-06-17T02:01:01.033Z,15.80
2018-06-17T02:03:33.686Z,15.85
2018-06-17T02:06:06.369Z,15.80
2018-06-17T02:08:39.070Z,15.79
2018-06-17T02:11:11.722Z,15.88
2018-06-17T02:13:38.624Z,16.05
2018-06-17T02:16:05.539Z,15.97
2018-06-17T02:18:32.437Z,15.90
2018-06-17T02:20:59.328Z,15.88
2018-06-17T02:23:26.237Z,15.89
2018-06-17T02:25:53.151Z,15.85
2018-06-17T02:28:20.053Z,15.86
2018-06-17T02:30:46.948Z,15.89
2018-06-17T02:33:13.858Z,15.78
2018-06-17T02:35:40.746Z,15.75
2018-06-17T02:38:07.645Z,15.74
2018-06-17T02:40:34.538Z,15.80
2018-06-17T02:43:01.444Z,15.80
2018-06-17T02:45:34.073Z,15.76
2018-06-17T02:48:06.733Z,15.74
2018-06-17T02:50:39.377Z,15.74
2018-06-17T02:53:12.013Z,15.79
2018-06-17T02:55:38.899Z,15.86
2018-06-17T02:58:05.805Z,15.95
2018-06-17T03:00:32.741Z,15.95
2018-06-17T03:02:59.665Z,15.84
2018-06-17T03:05:26.559Z,15.71
2018-06-17T03:07:53.530Z,15.74
2018-06-17T03:10:20.438Z,15.78
2018-06-17T03:12:47.339Z,15.78
2018-06-17T03:15:14.225Z,15.78
2018-06-17T03:17:41.160Z,15.65
2018-06-17T03:20:08.045Z,15.55
2018-06-17T03:22:34.950Z,15.41
2018-06-17T03:25:07.733Z,15.37
2018-06-17T03:27:40.462Z,15.44
2018-06-17T03:30:13.143Z,15.48
2018-06-17T03:32:45.753Z,15.55
2018-06-17T03:35:18.508Z,15.65
2018-06-17T03:37:45.418Z,15.68
2018-06-17T03:40:12.466Z,15.70
2018-06-17T03:42:39.403Z,15.84
2018-06-17T03:45:06.324Z,15.88
2018-06-17T03:47:33.253Z,15.86
2018-06-17T03:50:00.173Z,15.83
2018-06-17T03:52:27.065Z,15.81
2018-06-17T03:54:53.985Z,15.82
2018-06-17T03:57:20.896Z,15.85
2018-06-17T03:59:47.800Z,15.90
2018-06-17T04:02:14.709Z,15.93
2018-06-17T04:04:47.409Z,15.96
2018-06-17T04:07:14.301Z,15.92
2018-06-17T04:09:41.197Z,15.90
2018-06-17T04:12:08.085Z,15.85
2018-06-17T04:14:35.009Z,15.83
2018-06-17T04:17:08.662Z,15.84
2018-06-17T04:19:35.590Z,15.90
2018-06-17T04:22:02.493Z,15.91
2018-06-17T04:24:29.405Z,16.01
2018-06-17T04:26:56.347Z,16.28
2018-06-17T04:29:23.265Z,16.26
2018-06-17T04:31:50.164Z,16.22
2018-06-17T04:34:17.074Z,16.15
2018-06-17T04:36:43.981Z,16.04
2018-06-17T04:39:10.902Z,16.10
2018-06-17T04:41:37.795Z,16.15
2018-06-17T04:44:04.772Z,16.04
2018-06-17T04:46:31.677Z,15.98
2018-06-17T04:48:58.605Z,15.95
2018-06-17T04:51:25.525Z,16.14
2018-06-17T04:53:52.443Z,16.27
2018-06-17T04:56:19.353Z,16.35
2018-06-17T04:58:46.268Z,16.37
2018-06-17T05:01:13.248Z,16.34
2018-06-17T05:03:40.161Z,16.36
2018-06-17T05:06:07.099Z,16.35
2018-06-17T05:08:34.005Z,16.40
2018-06-17T05:11:00.929Z,16.37
2018-06-17T05:13:27.843Z,16.36
2018-06-17T05:15:54.766Z,16.42
2018-06-17T05:18:21.674Z,16.43
2018-06-17T05:20:48.589Z,16.45
2018-06-17T05:23:15.531Z,16.48
2018-06-17T05:25:42.441Z,16.57
2018-06-17T05:28:09.341Z,16.58
2018-06-17T05:30:36.256Z,16.59
2018-06-17T05:33:03.190Z,16.64
2018-06-17T05:35:30.095Z,16.65
2018-06-17T05:37:57.004Z,16.63
2018-06-17T05:40:23.921Z,16.66
2018-06-17T05:42:50.820Z,16.63
2018-06-17T05:45:17.709Z,16.83
2018-06-17T05:47:44.588Z,16.72
2018-06-17T05:50:11.485Z,16.92
2018-06-17T05:52:38.385Z,16.83
2018-06-17T05:55:05.288Z,16.55
2018-06-17T05:57:32.175Z,16.82
2018-06-17T05:59:59.069Z,17.02
2018-06-17T06:02:25.969Z,17.12
2018-06-17T06:04:52.860Z,17.32
2018-06-17T06:07:19.749Z,17.51
2018-06-17T06:09:46.653Z,17.87
2018-06-17T06:12:13.537Z,18.06
2018-06-17T06:14:40.434Z,18.11
2018-06-17T06:17:07.341Z,18.14
2018-06-17T06:19:34.278Z,17.63
2018-06-17T06:22:01.174Z,17.36
2018-06-17T06:24:28.105Z,17.62
2018-06-17T06:26:55.025Z,17.72
2018-06-17T06:29:21.933Z,17.58
2018-06-17T06:31:48.836Z,17.07
2018-06-17T06:34:15.733Z,16.96
2018-06-17T06:36:42.660Z,17.00
2018-06-17T06:39:10.273Z,17.38
2018-06-17T06:41:37.174Z,18.10
2018-06-17T06:44:04.173Z,18.42
2018-06-17T06:46:31.080Z,18.45
2018-06-17T06:48:57.972Z,18.63
2018-06-17T06:51:24.896Z,18.58
2018-06-17T06:53:51.810Z,18.76
2018-06-17T06:56:18.722Z,18.43
2018-06-17T06:58:45.624Z,18.44
2018-06-17T07:01:13.140Z,18.52
2018-06-17T07:04:49.481Z,18.94
2018-06-17T07:07:27.913Z,18.41
2018-06-17T07:10:05.893Z,18.71
2018-06-17T07:12:32.793Z,19.25
2018-06-17T07:14:59.697Z,18.96
2018-06-17T07:17:38.240Z,18.94
2018-06-17T07:20:05.148Z,19.13
2018-06-17T07:22:32.112Z,19.27
2018-06-17T07:24:59.077Z,19.03
2018-06-17T07:27:37.509Z,18.57
2018-06-17T07:30:04.422Z,18.39
2018-06-17T07:32:31.341Z,18.32
2018-06-17T07:34:58.249Z,18.18
2018-06-17T07:37:25.190Z,18.02
2018-06-17T07:40:12.022Z,18.25
2018-06-17T07:42:38.934Z,18.24
2018-06-17T07:45:05.840Z,18.56
2018-06-17T07:47:33.261Z,19.22
2018-06-17T07:50:12.792Z,19.37
2018-06-17T07:52:51.389Z,19.82
2018-06-17T07:55:18.288Z,20.02
2018-06-17T07:57:45.194Z,20.67
2018-06-17T08:00:12.102Z,20.11
2018-06-17T08:02:39.014Z,19.26
2018-06-17T08:05:05.909Z,19.16
2018-06-17T08:07:32.837Z,19.28
2018-06-17T08:09:59.744Z,19.19
2018-06-17T08:12:26.662Z,18.69
2018-06-17T08:14:53.550Z,18.54
2018-06-17T08:17:20.458Z,19.03
2018-06-17T08:19:47.369Z,19.80
2018-06-17T08:22:14.277Z,20.68
2018-06-17T08:24:41.209Z,21.33
2018-06-17T08:27:08.132Z,21.45
2018-06-17T08:29:37.517Z,21.09
2018-06-17T08:32:06.677Z,21.57
2018-06-17T08:34:33.585Z,21.59
2018-06-17T08:37:00.480Z,21.64
2018-06-17T08:39:27.385Z,20.83
2018-06-17T08:41:54.316Z,20.17
2018-06-17T08:44:21.639Z,19.91
2018-06-17T08:46:49.053Z,19.75
2018-06-17T08:49:16.241Z,20.04
2018-06-17T08:51:43.145Z,20.26
2018-06-17T08:54:10.138Z,20.11
2018-06-17T08:56:37.173Z,20.08
2018-06-17T08:59:04.089Z,19.97
2018-06-17T09:01:31.265Z,19.79
2018-06-17T09:03:58.220Z,20.61
2018-06-17T09:06:25.133Z,20.38
2018-06-17T09:08:53.445Z,20.52
2018-06-17T09:11:22.672Z,21.07
2018-06-17T09:13:52.359Z,21.75
2018-06-17T09:16:21.412Z,21.29
2018-06-17T09:18:49.267Z,21.29
2018-06-17T09:21:17.587Z,21.68
2018-06-17T09:23:46.472Z,21.65
2018-06-17T09:26:16.579Z,21.41
2018-06-17T09:28:43.529Z,21.19
2018-06-17T09:31:12.002Z,22.03
2018-06-17T09:33:41.070Z,22.01
2018-06-17T09:36:07.976Z,21.29
2018-06-17T09:38:34.878Z,21.13
2018-06-17T09:41:01.808Z,22.26
2018-06-17T09:43:28.713Z,22.52
2018-06-17T09:45:55.685Z,22.37
2018-06-17T09:48:22.568Z,21.59
2018-06-17T09:50:49.481Z,21.23
2018-06-17T09:53:16.360Z,20.90
2018-06-17T09:55:43.829Z,20.93
2018-06-17T09:58:10.773Z,21.02
2018-06-17T10:00:37.673Z,21.09
2018-06-17T10:03:04.633Z,21.27
2018-06-17T10:05:31.570Z,21.34
2018-06-17T10:07:58.481Z,21.14
2018-06-17T10:10:52.806Z,21.29
2018-06-17T10:13:20.460Z,21.45
2018-06-17T10:15:48.027Z,21.21
2018-06-17T10:18:17.919Z,20.84
2018-06-17T10:20:44.856Z,20.73
2018-06-17T10:23:11.931Z,20.70
2018-06-17T10:25:38.885Z,20.64
2018-06-17T10:28:06.327Z,21.00
2018-06-17T10:30:34.015Z,20.60
2018-06-17T10:33:00.965Z,20.72
2018-06-17T10:35:27.849Z,21.34
2018-06-17T10:37:54.733Z,21.45
2018-06-17T10:40:21.624Z,21.19
2018-06-17T10:42:48.994Z,21.04
2018-06-17T10:45:16.289Z,21.03
2018-06-17T10:47:43.794Z,20.80
2018-06-17T10:50:10.713Z,20.61
2018-06-17T10:52:38.474Z,21.00
2018-06-17T10:55:05.564Z,21.36
2018-06-17T10:57:32.689Z,21.87
2018-06-17T10:59:59.592Z,22.57
2018-06-17T11:02:26.513Z,22.39
2018-06-17T11:04:53.431Z,21.96
2018-06-17T11:07:20.529Z,21.87
2018-06-17T11:09:47.483Z,21.71
2018-06-17T11:12:14.470Z,21.79
2018-06-17T11:14:41.361Z,22.17
2018-06-17T11:17:08.298Z,22.00
2018-06-17T11:19:35.230Z,22.25
2018-06-17T11:22:02.125Z,22.12
2018-06-17T11:24:29.021Z,22.02
2018-06-17T11:26:55.941Z,21.79
2018-06-17T11:29:22.837Z,21.12
2018-06-17T11:31:49.741Z,21.72
2018-06-17T11:34:16.748Z,22.22
2018-06-17T11:36:43.657Z,22.06
2018-06-17T11:39:10.686Z,22.46
2018-06-17T11:41:37.514Z,23.20
2018-06-17T11:44:04.786Z,23.10
2018-06-17T11:46:31.696Z,22.60
2018-06-17T11:48:58.622Z,22.31
2018-06-17T11:51:25.704Z,22.91
2018-06-17T11:53:52.668Z,23.41
2018-06-17T11:56:19.577Z,23.51
2018-06-17T11:58:46.481Z,23.04
2018-06-17T12:01:13.394Z,23.27
2018-06-17T12:03:40.303Z,22.93
2018-06-17T12:06:07.308Z,22.61
2018-06-17T12:08:34.269Z,22.90
2018-06-17T12:11:01.189Z,22.69
2018-06-17T12:13:28.109Z,22.32
2018-06-17T12:15:55.013Z,22.07
2018-06-17T12:18:21.955Z,22.36
2018-06-17T12:20:48.873Z,22.76
2018-06-17T12:23:15.768Z,23.28
2018-06-17T12:25:42.696Z,23.66
2018-06-17T12:28:09.589Z,22.67
2018-06-17T12:30:36.505Z,22.24
2018-06-17T12:33:03.431Z,21.61
2018-06-17T12:35:30.341Z,21.29
2018-06-17T12:37:57.249Z,21.17
2018-06-17T12:40:24.144Z,20.68
2018-06-17T12:42:51.137Z,19.35
2018-06-17T12:45:18.046Z,17.33
2018-06-17T12:47:44.957Z,16.52
2018-06-17T12:50:11.942Z,15.60
2018-06-17T12:52:38.857Z,15.68
2018-06-17T12:55:05.744Z,16.00
2018-06-17T12:57:32.657Z,15.92
2018-06-17T13:00:01.718Z,15.81
2018-06-17T13:02:31.812Z,16.05
2018-06-17T13:04:58.738Z,15.98
2018-06-17T13:07:25.896Z,16.22
2018-06-17T13:09:52.896Z,16.50
2018-06-17T13:12:19.801Z,17.08
2018-06-17T13:14:46.817Z,16.95
2018-06-17T13:17:14.064Z,17.07
2018-06-17T13:19:41.109Z,17.15
2018-06-17T13:22:08.009Z,17.52
2018-06-17T13:24:35.174Z,17.56
2018-06-17T13:27:02.094Z,17.87
2018-06-17T13:29:28.985Z,17.84
2018-06-17T13:31:55.897Z,17.93
2018-06-17T13:34:22.851Z,18.22
2018-06-17T13:36:49.769Z,18.83
2018-06-17T13:39:16.677Z,18.98
2018-06-17T13:41:43.572Z,19.05
2018-06-17T13:44:10.464Z,19.21
2018-06-17T13:46:37.390Z,19.36
2018-06-17T13:49:04.381Z,19.00
2018-06-17T13:51:31.281Z,19.22
2018-06-17T13:53:58.568Z,19.44
2018-06-17T13:56:25.479Z,19.26
2018-06-17T13:58:52.369Z,19.00
2018-06-17T14:01:19.267Z,19.26
2018-06-17T14:03:46.165Z,19.25
2018-06-17T14:06:13.060Z,19.21
2018-06-17T14:08:39.961Z,19.32
2018-06-17T14:11:06.904Z,19.80
2018-06-17T14:13:33.914Z,19.79
2018-06-17T14:16:00.712Z,19.73
2018-06-17T14:18:27.640Z,20.00
2018-06-17T14:20:54.524Z,19.85
2018-06-17T14:23:21.429Z,20.08
2018-06-17T14:25:48.321Z,20.43
2018-06-17T14:28:15.221Z,20.81
2018-06-17T14:30:42.116Z,20.53
2018-06-17T14:33:09.008Z,20.28
2018-06-17T14:35:35.900Z,20.15
2018-06-17T14:38:02.840Z,19.68
2018-06-17T14:40:34.349Z,19.79
2018-06-17T14:43:07.080Z,19.30
2018-06-17T14:45:39.790Z,19.28
2018-06-17T14:48:12.536Z,19.63
2018-06-17T14:50:45.085Z,19.61
2018-06-17T14:53:12.144Z,19.30
2018-06-17T14:55:39.033Z,19.31
2018-06-17T14:58:05.928Z,19.52
2018-06-17T15:00:32.817Z,19.65
2018-06-17T15:02:59.733Z,19.80
2018-06-17T15:05:26.641Z,19.91
2018-06-17T15:07:53.582Z,19.64
2018-06-17T15:10:20.479Z,19.99
2018-06-17T15:12:47.428Z,19.78
2018-06-17T15:15:14.592Z,19.75
2018-06-17T15:17:41.453Z,19.74
2018-06-17T15:20:08.434Z,19.59
2018-06-17T15:22:35.285Z,19.32
2018-06-17T15:25:02.647Z,19.64
2018-06-17T15:27:29.553Z,19.65
2018-06-17T15:29:56.460Z,19.92
2018-06-17T15:33:31.839Z,19.95
2018-06-17T15:36:04.501Z,20.05
2018-06-17T15:38:37.152Z,20.41
2018-06-17T15:41:09.765Z,20.17
2018-06-17T15:43:36.678Z,20.23
2018-06-17T15:46:03.584Z,20.35
2018-06-17T15:48:30.486Z,19.80
2018-06-17T15:50:57.443Z,20.10
2018-06-17T15:53:24.349Z,19.79
2018-06-17T15:55:51.268Z,19.98
2018-06-17T15:58:18.209Z,20.19
2018-06-17T16:00:45.128Z,20.17
2018-06-17T16:03:12.020Z,19.81
2018-06-17T16:05:38.941Z,19.71
2018-06-17T16:08:05.838Z,19.60
2018-06-17T16:10:32.755Z,19.64
2018-06-17T16:13:05.371Z,19.79
2018-06-17T16:15:38.021Z,19.68
2018-06-17T16:18:10.656Z,19.29
2018-06-17T16:20:43.338Z,19.18
2018-06-17T16:23:10.243Z,19.07
2018-06-17T16:25:37.189Z,19.11
2018-06-17T16:28:04.099Z,19.05
2018-06-17T16:30:31.110Z,18.94
2018-06-17T16:32:58.014Z,19.13
2018-06-17T16:35:24.924Z,18.94
2018-06-17T16:37:51.837Z,18.65
2018-06-17T16:40:18.756Z,18.65
2018-06-17T16:42:45.942Z,18.69
2018-06-17T16:45:13.090Z,18.54
2018-06-17T16:47:40.006Z,18.84
2018-06-17T16:50:06.904Z,18.63
2018-06-17T16:52:42.901Z,18.57
2018-06-17T16:55:17.212Z,18.62
2018-06-17T16:57:49.842Z,18.61
2018-06-17T17:00:18.888Z,18.92
2018-06-17T17:02:46.265Z,18.83
2018-06-17T17:05:13.420Z,18.63
2018-06-17T17:07:40.703Z,18.66
2018-06-17T17:10:07.643Z,18.84
2018-06-17T17:12:34.570Z,19.11
2018-06-17T17:15:01.493Z,18.89
2018-06-17T17:17:28.446Z,18.87
2018-06-17T17:19:55.348Z,18.91
2018-06-17T17:22:22.253Z,18.98
2018-06-17T17:24:49.436Z,19.01
2018-06-17T17:27:16.349Z,19.01
2018-06-17T17:29:43.248Z,18.94
2018-06-17T17:32:15.884Z,18.76
2018-06-17T17:34:48.561Z,18.71
2018-06-17T17:37:21.346Z,18.55
2018-06-17T17:39:54.106Z,18.48
2018-06-17T17:42:21.025Z,18.54
2018-06-17T17:44:53.822Z,18.68
2018-06-17T17:47:22.674Z,18.51
2018-06-17T17:49:49.713Z,18.37
2018-06-17T17:52:16.626Z,18.24
2018-06-17T17:54:43.751Z,18.26
2018-06-17T17:57:10.673Z,18.30
2018-06-17T17:59:37.808Z,18.18
2018-06-17T18:02:05.092Z,18.20
2018-06-17T18:04:32.053Z,18.18
2018-06-17T18:06:59.118Z,18.12
2018-06-17T18:09:26.080Z,18.24
2018-06-17T18:11:52.996Z,18.33
2018-06-17T18:14:19.900Z,18.30
2018-06-17T18:16:46.851Z,18.25
2018-06-17T18:19:13.768Z,18.31
2018-06-17T18:21:40.681Z,18.21
2018-06-17T18:24:07.598Z,18.09
2018-06-17T18:26:40.314Z,18.20
2018-06-17T18:29:12.965Z,18.10
2018-06-17T18:31:45.650Z,18.03
2018-06-17T18:34:18.325Z,17.98
2018-06-17T18:36:45.233Z,17.86
2018-06-17T18:39:12.208Z,17.88
2018-06-17T18:41:39.228Z,17.76
2018-06-17T18:44:06.128Z,17.68
2018-06-17T18:46:33.126Z,17.64
2018-06-17T18:49:00.175Z,17.60
2018-06-17T18:51:27.371Z,17.56
2018-06-17T18:53:54.273Z,17.51
2018-06-17T18:56:21.216Z,17.45
2018-06-17T18:58:48.233Z,17.44
2018-06-17T19:01:15.124Z,17.42
2018-06-17T19:03:42.228Z,17.28
2018-06-17T19:06:10.034Z,17.22
2018-06-17T19:08:42.612Z,17.19
2018-06-17T19:11:15.240Z,17.10
2018-06-17T19:13:47.951Z,17.11
2018-06-17T19:16:20.720Z,17.04
2018-06-17T19:18:47.634Z,17.04
2018-06-17T19:21:14.523Z,17.11
2018-06-17T19:23:41.423Z,17.06
2018-06-17T19:26:08.328Z,17.16
2018-06-17T19:28:35.246Z,17.10
2018-06-17T19:31:02.140Z,17.23
2018-06-17T19:33:29.081Z,17.19
2018-06-17T19:35:55.994Z,17.07
2018-06-17T19:38:22.925Z,17.06
2018-06-17T19:40:49.913Z,17.02
2018-06-17T19:43:16.791Z,17.06
2018-06-17T19:45:43.706Z,17.02
2018-06-17T19:48:10.796Z,16.97
2018-06-17T19:50:43.459Z,17.06
2018-06-17T19:53:16.179Z,16.97
2018-06-17T19:55:48.857Z,16.84
2018-06-17T19:58:25.737Z,16.88
2018-06-17T20:00:55.735Z,16.78
2018-06-17T20:03:22.653Z,16.86
2018-06-17T20:05:49.586Z,16.94
2018-06-17T20:08:16.488Z,16.80
2018-06-17T20:10:43.405Z,16.78
2018-06-17T20:13:10.301Z,16.70
2018-06-17T20:15:37.193Z,16.84
2018-06-17T20:18:04.181Z,16.65
2018-06-17T20:20:31.109Z,16.78
2018-06-17T20:22:58.017Z,16.60
2018-06-17T20:25:24.924Z,16.55
2018-06-17T20:27:52.613Z,16.61
2018-06-17T20:30:19.606Z,16.47
2018-06-17T20:32:52.176Z,16.44
2018-06-17T20:35:24.785Z,16.41
2018-06-17T20:37:57.542Z,16.44
2018-06-17T20:40:30.240Z,16.38
2018-06-17T20:43:02.934Z,16.48
2018-06-17T20:45:29.846Z,16.34
2018-06-17T20:47:56.765Z,16.37
2018-06-17T20:50:23.648Z,16.41
2018-06-17T20:52:50.577Z,16.31
2018-06-17T20:55:17.938Z,16.28
2018-06-17T20:57:45.534Z,16.25
2018-06-17T21:00:12.425Z,16.39
2018-06-17T21:02:39.344Z,16.27
2018-06-17T21:05:06.252Z,16.18
2018-06-17T21:07:33.128Z,16.17
2018-06-17T21:10:00.027Z,16.05
2018-06-17T21:12:26.921Z,15.90
2018-06-17T21:14:53.819Z,15.89
2018-06-17T21:17:20.767Z,15.87
2018-06-17T21:19:53.292Z,15.68
2018-06-17T21:22:25.976Z,15.68
2018-06-17T21:24:58.626Z,15.59
2018-06-17T21:27:31.272Z,15.49
2018-06-17T21:29:58.181Z,15.34
2018-06-17T21:32:25.378Z,15.45
2018-06-17T21:34:52.272Z,15.44
2018-06-17T21:37:19.206Z,15.35
2018-06-17T21:39:46.412Z,15.36
2018-06-17T21:42:13.332Z,15.24
2018-06-17T21:44:40.252Z,15.21
2018-06-17T21:47:07.156Z,15.18
2018-06-17T21:49:34.038Z,15.26
2018-06-17T21:52:01.921Z,15.30
2018-06-17T21:54:28.829Z,15.27
2018-06-17T21:56:55.801Z,15.29
2018-06-17T21:59:22.681Z,15.32
2018-06-17T22:01:49.605Z,15.35
2018-06-17T22:04:22.244Z,15.41
2018-06-17T22:06:49.238Z,15.42
2018-06-17T22:10:22.593Z,15.35
2018-06-17T22:12:55.309Z,15.37
2018-06-17T22:15:27.961Z,15.37
2018-06-17T22:17:55.123Z,15.46
2018-06-17T22:20:22.072Z,15.47
2018-06-17T22:22:48.990Z,15.50
2018-06-17T22:25:16.145Z,15.54
2018-06-17T22:27:43.063Z,15.47
2018-06-17T22:30:09.964Z,15.51
2018-06-17T22:32:36.917Z,15.56
2018-06-17T22:35:03.912Z,15.56
2018-06-17T22:37:30.808Z,15.57
2018-06-17T22:39:57.696Z,15.61
2018-06-17T22:42:24.601Z,15.68
2018-06-17T22:44:51.491Z,15.64
2018-06-17T22:47:24.252Z,15.65
2018-06-17T22:49:51.120Z,15.65
2018-06-17T22:52:17.999Z,15.69
2018-06-17T22:54:49.243Z,15.68
2018-06-17T22:57:21.977Z,15.69
2018-06-17T22:59:54.557Z,15.71
2018-06-17T23:02:27.232Z,15.64
2018-06-17T23:04:59.917Z,15.68
2018-06-17T23:07:32.592Z,15.65
2018-06-17T23:09:59.516Z,15.57
2018-06-17T23:12:26.433Z,15.55
2018-06-17T23:14:53.314Z,15.37
2018-06-17T23:17:20.202Z,15.40
2018-06-17T23:19:47.076Z,15.40
2018-06-17T23:22:14.021Z,15.40
2018-06-17T23:24:40.921Z,15.36
2018-06-17T23:27:07.838Z,15.38
2018-06-17T23:29:34.798Z,15.38
2018-06-17T23:32:01.694Z,15.29
2018-06-17T23:34:28.605Z,15.29
2018-06-17T23:36:55.492Z,15.28
2018-06-17T23:39:22.413Z,15.27
2018-06-17T23:41:49.312Z,15.24
2018-06-17T23:44:16.221Z,15.19
2018-06-17T23:46:48.825Z,15.14
2018-06-17T23:49:21.504Z,15.07
2018-06-17T23:51:54.204Z,14.97
2018-06-17T23:54:26.904Z,14.99
2018-06-17T23:56:53.846Z,14.90
2018-06-17T23:59:20.763Z,14.83
